Corpus Christi, TX

11:22 AM CDT on May 27, 2017 (GMT -0500)
Padre Island | | Change Station
Active Advisory: Special Statement

Elev 35 ft 27.60 °N, 97.24 °W | Updated 5 seconds ago

Mostly Cloudy
Mostly Cloudy
84.3 °F
Feels Like 97 °F
N
13.8
Wind Variable Wind from South
Gusts 13.8 mph

Today
High -- | Low -- °F
--% Chance of Precip.
Yesterday
High -- | Low -- °F
Precip. -- in
Pressure 29.91 in
Visibility 7.0 miles
Clouds Mostly Cloudy 1500 ft
Overcast 2200 ft
Heat Index 97 °F
Dew Point 80 °F
Humidity 86%
Rainfall 0.00 in
Snow Depth Not available.
6:34 AM 8:17 PM
Waxing Crescent, 5% visible
METAR KNGP 271556Z AUTO 17019G24KT 7SM BKN015 OVC022 31/26 A2991 RMK AO2 SLP128 T03060256 PWINO
Pressure 29.91 in
Visibility 7.0 miles
Clouds Mostly Cloudy 1500 ft
Overcast 2200 ft
Heat Index 97 °F
Dew Point 80 °F
Humidity 86%
Rainfall 0.00 in
Snow Depth Not available.
6:34 AM 8:17 PM
Waxing Crescent, 5% visible
METAR KNGP 271556Z AUTO 17019G24KT 7SM BKN015 OVC022 31/26 A2991 RMK AO2 SLP128 T03060256 PWINO

Get Your Daily Forecast Email!

Thanks for signing up!

Be on the lookout for a verification email in your inbox.

You'll start receiving severe weather alerts in your inbox..

×

10-Day Weather Forecast

Almanac

Astronomy

May. 27, 2017 Rise Set
Actual Time
Civil Twilight
Nautical Twilight
Astronomical Twilight
Moon
Length of Visible Light
Length of Day
Tomorrow will be .
, % of the Moon is Illuminated

Today's Extremes

State Highs State Lows

Community

WunderPhotos

Category 6

Welcome to Category 6. This is the collective home for Weather Underground's featured writeups by Dr. Jeff Masters (right), Bob Henson (left), Chris Burt, and other regular contributors.

Nearby

Air Quality

  Air Quality AQ Index Pollutant
Not available.

Snow Depth

Station Depth Elevation

Earthquake Activity

City Distance Mag. Time & Date
Minimum magnitude displayed is 2.5.

Coastal Water Temperatures

Place Temperature

Stations

Nearby Weather Stations

Station Location Temp. Windchill Dew Point Humidity Wind Precip. Elev Updated Type
                   

Watches & Warnings

Special Statement
Issued: 4:59 AM CDT May. 27, 2017 – National Weather Service

... Heat index values between 105 and 109 degrees are expected
today across much of south Texas...

The combination of hot and humid conditions will produce heat
index values between 105 and 109 degrees today. Residents with
outdoor activities planned are urged to drink plenty of water,
wear light weight and light colored clothing and take frequent
breaks from the heat. Young children and pets should never be left
unattended in vehicles under any circumstances. This is especially
true during warm or hot weather when car interiors can reach
lethal temperatures in a matter of minutes.


Tb